Weather at London Stansted Airport

Public forecast

Using degrees Celsius for public forecast. Weather courtesy of forecast.io.

Current aviation weather report (METAR) for London Stansted Airport

Retrieved 2022/08/19 13:20 UTC (12 minutes ago):

EGSS 191320Z AUTO 26009KT 220V300 9999 BKN049 24/09 Q1014

Aviation forecast (TAF) for London Stansted Airport

Retrieved 2022/08/19 12:00 UTC (2 hours ago):

TAF EGSS 191051Z 1912/2018 27009KT 9999 SCT040